Terminal Aerodrome Forecast
Issued by NWS

Home | Current Version | Previous Version | Text Only | Print | Product List | Glossary On
Versions: 1 2 3 4 5 6 7 8 9 10 11 12 13 14 15 16 17 18 19
000
FTUS42 KTAE 260500
TAFDHN
TAF
KDHN 260521Z 2606/2706 31008KT P6SM -RA SCT070 OVC100
     FM260900 31010KT P6SM SKC
     FM262000 28008KT P6SM SKC=

USA.gov is the U.S. government's official web portal to all federal, state and local government web resources and services.